createdAt,value
2022-07-25T00:00:03.150Z,100.00
2022-07-25T00:01:03.124Z,100.00
2022-07-25T00:02:03.203Z,100.00
2022-07-25T00:03:03.150Z,100.00
2022-07-25T00:04:03.655Z,100.00
2022-07-25T00:05:03.266Z,100.00
2022-07-25T00:06:03.144Z,100.00
2022-07-25T00:07:03.158Z,100.00
2022-07-25T00:08:03.145Z,100.00
2022-07-25T00:09:03.148Z,100.00
2022-07-25T00:10:03.145Z,100.00
2022-07-25T00:11:03.133Z,100.00
2022-07-25T00:12:03.135Z,100.00
2022-07-25T00:13:03.227Z,100.00
2022-07-25T00:14:03.522Z,100.00
2022-07-25T00:15:03.278Z,100.00
2022-07-25T00:16:03.303Z,100.00
2022-07-25T00:17:03.282Z,100.00
2022-07-25T00:18:03.293Z,100.00
2022-07-25T00:19:03.298Z,100.00
2022-07-25T00:20:03.321Z,100.00
2022-07-25T00:21:03.326Z,100.00
2022-07-25T00:22:03.332Z,100.00
2022-07-25T00:23:03.342Z,100.00
2022-07-25T00:24:03.804Z,100.00
2022-07-25T00:25:03.386Z,100.00
2022-07-25T00:26:03.404Z,100.00
2022-07-25T00:27:03.407Z,100.00
2022-07-25T00:28:03.397Z,100.00
2022-07-25T00:29:03.408Z,100.00
2022-07-25T00:30:03.418Z,100.00
2022-07-25T00:31:03.542Z,100.00
2022-07-25T00:32:03.440Z,100.00
2022-07-25T00:33:03.478Z,100.00
2022-07-25T00:34:03.689Z,100.00
2022-07-25T00:35:03.515Z,100.00
2022-07-25T00:36:03.541Z,100.00
2022-07-25T00:37:03.521Z,100.00
2022-07-25T00:38:03.529Z,100.00
2022-07-25T00:39:03.520Z,100.00
2022-07-25T00:40:03.553Z,100.00
2022-07-25T00:41:03.556Z,100.00
2022-07-25T00:42:03.584Z,100.00
2022-07-25T00:43:03.614Z,100.00
2022-07-25T00:44:03.831Z,100.00
2022-07-25T00:45:03.663Z,100.00
2022-07-25T00:46:03.761Z,100.00
2022-07-25T00:47:03.646Z,100.00
2022-07-25T00:48:03.616Z,100.00
2022-07-25T00:49:03.766Z,100.00
2022-07-25T00:50:03.714Z,100.00
2022-07-25T00:51:03.684Z,100.00
2022-07-25T00:52:03.680Z,100.00
2022-07-25T00:53:03.763Z,100.00
2022-07-25T00:54:03.935Z,100.00
2022-07-25T00:55:03.751Z,100.00
2022-07-25T00:56:03.730Z,100.00
2022-07-25T00:57:03.762Z,100.00
2022-07-25T00:58:03.776Z,100.00
2022-07-25T00:59:03.807Z,100.00
2022-07-25T01:00:03.799Z,100.00
2022-07-25T01:01:03.802Z,100.00
2022-07-25T01:02:04.403Z,100.00
2022-07-25T01:03:03.924Z,100.00
2022-07-25T01:04:04.153Z,100.00
2022-07-25T01:05:03.864Z,100.00
2022-07-25T01:06:03.891Z,100.00
2022-07-25T01:07:03.902Z,100.00
2022-07-25T01:08:03.913Z,100.00
2022-07-25T01:09:03.887Z,100.00
2022-07-25T01:10:03.937Z,100.00
2022-07-25T01:11:03.938Z,100.00
2022-07-25T01:12:03.956Z,100.00
2022-07-25T01:13:03.969Z,100.00
2022-07-25T01:14:04.256Z,100.00
2022-07-25T01:15:04.001Z,100.00
2022-07-25T01:16:04.038Z,100.00
2022-07-25T01:17:04.001Z,100.00
2022-07-25T01:18:04.007Z,100.00
2022-07-25T01:19:03.996Z,100.00
2022-07-25T01:20:04.059Z,100.00
2022-07-25T01:21:04.054Z,100.00
2022-07-25T01:22:04.072Z,100.00
2022-07-25T01:23:04.089Z,100.00
2022-07-25T01:24:04.374Z,100.00
2022-07-25T01:25:04.116Z,100.00
2022-07-25T01:26:04.116Z,100.00
2022-07-25T01:27:04.118Z,100.00
2022-07-25T01:28:04.143Z,100.00
2022-07-25T01:29:04.167Z,100.00
2022-07-25T01:30:04.164Z,100.00
2022-07-25T01:31:04.218Z,100.00
2022-07-25T01:32:04.191Z,100.00
2022-07-25T01:33:06.757Z,100.00
2022-07-25T01:34:04.670Z,100.00
2022-07-25T01:35:04.251Z,100.00
2022-07-25T01:36:04.194Z,100.00
2022-07-25T01:37:04.195Z,100.00
2022-07-25T01:38:04.203Z,100.00
2022-07-25T01:39:04.212Z,100.00
2022-07-25T01:40:04.215Z,100.00
2022-07-25T01:41:04.223Z,100.00
2022-07-25T01:42:04.217Z,100.00
2022-07-25T01:43:04.217Z,100.00
2022-07-25T01:44:04.606Z,100.00
2022-07-25T01:45:04.246Z,100.00
2022-07-25T01:46:04.313Z,100.00
2022-07-25T01:47:04.234Z,100.00
2022-07-25T01:48:04.209Z,100.00
2022-07-25T01:49:04.272Z,100.00
2022-07-25T01:50:04.267Z,100.00
2022-07-25T01:51:04.227Z,100.00
2022-07-25T01:52:04.244Z,100.00
2022-07-25T01:53:04.227Z,100.00
2022-07-25T01:54:04.616Z,100.00
2022-07-25T01:55:04.241Z,100.00
2022-07-25T01:56:04.236Z,100.00
2022-07-25T01:57:04.230Z,100.00
2022-07-25T01:58:04.242Z,100.00
2022-07-25T01:59:04.254Z,100.00
2022-07-25T02:00:04.254Z,100.00
2022-07-25T02:01:04.296Z,100.00
2022-07-25T02:02:04.387Z,100.00
2022-07-25T02:03:04.239Z,100.00
2022-07-25T02:04:04.629Z,100.00
2022-07-25T02:05:04.363Z,100.00
2022-07-25T02:06:04.225Z,100.00
2022-07-25T02:07:04.249Z,100.00
2022-07-25T02:08:04.257Z,100.00
2022-07-25T02:09:04.252Z,100.00
2022-07-25T02:10:04.283Z,100.00
2022-07-25T02:11:04.252Z,100.00
2022-07-25T02:12:04.242Z,100.00
2022-07-25T02:13:04.264Z,100.00
2022-07-25T02:14:04.630Z,100.00
2022-07-25T02:15:40.796Z,100.00
2022-07-25T02:16:40.821Z,100.00
2022-07-25T02:17:40.769Z,100.00
2022-07-25T02:18:40.810Z,100.00
2022-07-25T02:19:40.789Z,100.00
2022-07-25T02:20:40.792Z,100.00
2022-07-25T02:21:40.780Z,100.00
2022-07-25T02:22:40.791Z,100.00
2022-07-25T02:23:40.789Z,100.00
2022-07-25T02:24:40.828Z,100.00
2022-07-25T02:25:40.813Z,100.00
2022-07-25T02:26:40.814Z,100.00
2022-07-25T02:27:40.812Z,100.00
2022-07-25T02:28:40.792Z,100.00
2022-07-25T02:29:40.808Z,100.00
2022-07-25T02:30:40.871Z,100.00
2022-07-25T02:31:40.843Z,100.00
2022-07-25T02:32:40.812Z,100.00
2022-07-25T02:33:40.838Z,100.00
2022-07-25T02:34:40.817Z,100.00
2022-07-25T02:35:40.824Z,100.00
2022-07-25T02:36:40.866Z,100.00
2022-07-25T02:37:40.818Z,100.00
2022-07-25T02:38:40.820Z,100.00
2022-07-25T02:39:40.828Z,100.00
2022-07-25T02:40:40.830Z,100.00
2022-07-25T02:41:40.815Z,100.00
2022-07-25T02:42:40.842Z,100.00
2022-07-25T02:43:40.821Z,100.00
2022-07-25T02:44:40.843Z,100.00
2022-07-25T02:45:40.895Z,100.00
2022-07-25T02:46:40.834Z,100.00
2022-07-25T02:47:40.830Z,100.00
2022-07-25T02:48:40.887Z,100.00
2022-07-25T02:49:40.823Z,100.00
2022-07-25T02:50:40.848Z,100.00
2022-07-25T02:51:40.983Z,100.00
2022-07-25T02:52:40.985Z,100.00
2022-07-25T02:53:56.723Z,100.00
2022-07-25T02:54:40.986Z,100.00
2022-07-25T02:55:41.017Z,100.00
2022-07-25T02:56:41.021Z,100.00
2022-07-25T02:57:40.992Z,100.00
2022-07-25T02:58:41.025Z,100.00
2022-07-25T02:59:41.007Z,100.00
2022-07-25T03:00:41.060Z,100.00
2022-07-25T03:01:41.127Z,100.00
2022-07-25T03:02:41.043Z,100.00
2022-07-25T03:03:41.108Z,100.00
2022-07-25T03:04:41.044Z,100.00
2022-07-25T03:05:41.070Z,100.00
2022-07-25T03:06:41.047Z,100.00
2022-07-25T03:07:41.046Z,100.00
2022-07-25T03:08:41.078Z,100.00
2022-07-25T03:09:41.061Z,100.00
2022-07-25T03:10:41.088Z,100.00
2022-07-25T03:11:41.092Z,100.00
2022-07-25T03:12:41.099Z,100.00
2022-07-25T03:13:41.135Z,100.00
2022-07-25T03:14:41.120Z,100.00
2022-07-25T03:15:41.158Z,100.00
2022-07-25T03:16:41.177Z,100.00
2022-07-25T03:17:41.174Z,100.00
2022-07-25T03:18:41.160Z,100.00
2022-07-25T03:19:41.217Z,100.00
2022-07-25T03:20:41.207Z,100.00
2022-07-25T03:21:41.220Z,100.00
2022-07-25T03:22:41.205Z,100.00
2022-07-25T03:23:41.250Z,100.00
2022-07-25T03:24:41.285Z,100.00
2022-07-25T03:25:41.276Z,100.00
2022-07-25T03:26:41.285Z,100.00
2022-07-25T03:27:41.278Z,100.00
2022-07-25T03:28:41.284Z,100.00
2022-07-25T03:29:41.319Z,100.00
2022-07-25T03:30:41.358Z,100.00
2022-07-25T03:31:41.403Z,100.00
2022-07-25T03:32:41.363Z,100.00
2022-07-25T03:33:41.348Z,100.00
2022-07-25T03:34:41.369Z,100.00
2022-07-25T03:35:41.383Z,100.00
2022-07-25T03:36:41.377Z,100.00
2022-07-25T03:37:41.397Z,100.00
2022-07-25T03:38:41.430Z,100.00
2022-07-25T03:39:41.459Z,100.00
2022-07-25T03:40:41.404Z,100.00
2022-07-25T03:41:41.468Z,100.00
2022-07-25T03:42:41.480Z,100.00
2022-07-25T03:43:41.493Z,100.00
2022-07-25T03:44:41.530Z,100.00
2022-07-25T03:45:41.558Z,100.00
2022-07-25T03:46:41.512Z,100.00
2022-07-25T03:47:41.528Z,100.00
2022-07-25T03:48:41.594Z,100.00
2022-07-25T03:49:41.566Z,100.00
2022-07-25T03:50:41.548Z,100.00
2022-07-25T03:51:41.579Z,100.00
2022-07-25T03:52:41.625Z,100.00
2022-07-25T03:53:41.600Z,100.00
2022-07-25T03:54:41.604Z,100.00
2022-07-25T03:55:41.627Z,100.00
2022-07-25T03:56:43.776Z,100.00
2022-07-25T03:57:41.641Z,100.00
2022-07-25T03:58:41.680Z,100.00
2022-07-25T03:59:41.702Z,100.00
2022-07-25T04:00:41.716Z,100.00
2022-07-25T04:01:41.715Z,100.00
2022-07-25T04:02:41.792Z,100.00
2022-07-25T04:03:41.760Z,100.00
2022-07-25T04:04:41.746Z,100.00
2022-07-25T04:05:47.004Z,100.00
2022-07-25T04:06:41.754Z,100.00
2022-07-25T04:07:41.758Z,100.00
2022-07-25T04:08:41.782Z,100.00
2022-07-25T04:09:41.771Z,100.00
2022-07-25T04:10:41.760Z,100.00
2022-07-25T04:11:41.771Z,100.00
2022-07-25T04:12:41.758Z,100.00
2022-07-25T04:13:41.761Z,100.00
2022-07-25T04:14:41.795Z,100.00
2022-07-25T04:15:41.770Z,100.00
2022-07-25T04:16:41.858Z,100.00
2022-07-25T04:17:41.811Z,100.00
2022-07-25T04:18:41.755Z,100.00
2022-07-25T04:19:41.764Z,100.00
2022-07-25T04:20:41.777Z,100.00
2022-07-25T04:21:41.782Z,100.00
2022-07-25T04:22:46.273Z,100.00
2022-07-25T04:23:41.804Z,100.00
2022-07-25T04:24:41.780Z,100.00
2022-07-25T04:25:41.782Z,100.00
2022-07-25T04:26:41.783Z,100.00
2022-07-25T04:27:41.796Z,100.00
2022-07-25T04:28:41.797Z,100.00
2022-07-25T04:29:41.805Z,100.00
2022-07-25T04:30:41.780Z,100.00
2022-07-25T04:31:41.831Z,100.00
2022-07-25T04:32:41.797Z,100.00
2022-07-25T04:33:41.775Z,100.00
2022-07-25T04:34:41.806Z,100.00
2022-07-25T04:35:41.796Z,100.00
2022-07-25T04:36:41.813Z,100.00
2022-07-25T04:37:41.787Z,100.00
2022-07-25T04:38:41.784Z,100.00
2022-07-25T04:39:41.807Z,100.00
2022-07-25T04:40:41.796Z,100.00
2022-07-25T04:41:41.777Z,100.00
2022-07-25T04:42:41.796Z,100.00
2022-07-25T04:43:48.041Z,100.00
2022-07-25T04:44:41.827Z,100.00
2022-07-25T04:45:41.887Z,100.00
2022-07-25T04:46:41.830Z,100.00
2022-07-25T04:47:41.812Z,100.00
2022-07-25T04:48:41.878Z,100.00
2022-07-25T04:49:41.813Z,100.00
2022-07-25T04:50:41.801Z,100.00
2022-07-25T04:51:41.794Z,100.00
2022-07-25T04:52:41.839Z,100.00
2022-07-25T04:53:41.827Z,100.00
2022-07-25T04:54:41.809Z,100.00
2022-07-25T04:55:41.800Z,100.00
2022-07-25T04:56:41.814Z,100.00
2022-07-25T04:57:41.814Z,100.00
2022-07-25T04:58:41.830Z,100.00
2022-07-25T04:59:41.839Z,100.00
2022-07-25T05:00:41.920Z,100.00
2022-07-25T05:01:41.803Z,100.00
2022-07-25T05:02:41.945Z,100.00
2022-07-25T05:03:41.826Z,100.00
2022-07-25T05:04:45.339Z,100.00
2022-07-25T05:05:41.839Z,100.00
2022-07-25T05:06:41.912Z,100.00
2022-07-25T05:07:41.833Z,100.00
2022-07-25T05:08:41.840Z,100.00
2022-07-25T05:09:41.829Z,100.00
2022-07-25T05:10:41.849Z,100.00
2022-07-25T05:11:47.319Z,100.00
2022-07-25T05:12:41.843Z,100.00
2022-07-25T05:13:41.834Z,100.00
2022-07-25T05:14:41.856Z,100.00
2022-07-25T05:15:41.835Z,100.00
2022-07-25T05:16:41.909Z,100.00
2022-07-25T05:17:41.839Z,100.00
2022-07-25T05:18:41.844Z,100.00
2022-07-25T05:19:41.874Z,100.00
2022-07-25T05:20:41.861Z,100.00
2022-07-25T05:21:41.841Z,100.00
2022-07-25T05:22:41.845Z,100.00
2022-07-25T05:23:41.856Z,100.00
2022-07-25T05:24:41.867Z,100.00
2022-07-25T05:25:41.853Z,100.00
2022-07-25T05:26:41.853Z,100.00
2022-07-25T05:27:41.849Z,100.00
2022-07-25T05:28:41.846Z,100.00
2022-07-25T05:29:41.872Z,100.00
2022-07-25T05:30:41.906Z,100.00
2022-07-25T05:31:41.908Z,100.00
2022-07-25T05:32:41.857Z,100.00
2022-07-25T05:33:41.867Z,100.00
2022-07-25T05:34:41.882Z,100.00
2022-07-25T05:35:41.824Z,100.00
2022-07-25T05:36:46.833Z,100.00
2022-07-25T05:37:41.880Z,100.00
2022-07-25T05:38:41.879Z,100.00
2022-07-25T05:39:41.891Z,100.00
2022-07-25T05:40:41.883Z,100.00
2022-07-25T05:41:41.860Z,100.00
2022-07-25T05:42:41.884Z,100.00
2022-07-25T05:43:41.861Z,100.00
2022-07-25T05:44:41.866Z,100.00
2022-07-25T05:45:41.884Z,100.00
2022-07-25T05:46:41.944Z,100.00
2022-07-25T05:47:41.905Z,100.00
2022-07-25T05:48:41.925Z,100.00
2022-07-25T05:49:41.915Z,100.00
2022-07-25T05:50:41.887Z,100.00
2022-07-25T05:51:41.880Z,100.00
2022-07-25T05:52:41.884Z,100.00
2022-07-25T05:53:41.871Z,100.00
2022-07-25T05:54:41.906Z,100.00
2022-07-25T05:55:41.896Z,100.00
2022-07-25T05:56:41.890Z,100.00
2022-07-25T05:57:41.884Z,100.00
2022-07-25T05:58:41.886Z,100.00
2022-07-25T05:59:41.898Z,100.00
2022-07-25T06:00:41.889Z,100.00
2022-07-25T06:01:41.944Z,100.00
2022-07-25T06:02:42.064Z,100.00
2022-07-25T06:03:41.890Z,100.00
2022-07-25T06:04:41.912Z,100.00
2022-07-25T06:05:41.901Z,100.00
2022-07-25T06:06:41.892Z,100.00
2022-07-25T06:07:41.907Z,100.00
2022-07-25T06:08:41.918Z,100.00
2022-07-25T06:09:41.921Z,100.00
2022-07-25T06:10:41.894Z,100.00
2022-07-25T06:11:54.662Z,100.00
2022-07-25T06:12:41.918Z,100.00
2022-07-25T06:13:41.910Z,100.00
2022-07-25T06:14:41.924Z,100.00
2022-07-25T06:15:41.915Z,100.00
2022-07-25T06:16:41.929Z,100.00
2022-07-25T06:17:41.904Z,100.00
2022-07-25T06:18:41.917Z,100.00
2022-07-25T06:19:41.931Z,100.00
2022-07-25T06:20:41.905Z,100.00
2022-07-25T06:21:41.929Z,100.00
2022-07-25T06:22:41.946Z,100.00
2022-07-25T06:23:41.918Z,100.00
2022-07-25T06:24:41.923Z,100.00
2022-07-25T06:25:41.908Z,100.00
2022-07-25T06:26:41.928Z,100.00
2022-07-25T06:27:41.928Z,100.00
2022-07-25T06:28:41.915Z,100.00
2022-07-25T06:29:41.976Z,100.00
2022-07-25T06:30:41.915Z,100.00
2022-07-25T06:31:41.998Z,100.00
2022-07-25T06:32:41.913Z,100.00
2022-07-25T06:33:41.924Z,100.00
2022-07-25T06:34:41.921Z,100.00
2022-07-25T06:35:41.939Z,100.00
2022-07-25T06:36:41.935Z,100.00
2022-07-25T06:37:41.925Z,100.00
2022-07-25T06:38:41.924Z,100.00
2022-07-25T06:39:45.628Z,100.00
2022-07-25T06:40:41.951Z,100.00
2022-07-25T06:41:41.928Z,100.00
2022-07-25T06:42:41.946Z,100.00
2022-07-25T06:43:41.983Z,100.00
2022-07-25T06:44:41.936Z,100.00
2022-07-25T06:45:41.965Z,100.00
2022-07-25T06:46:41.998Z,100.00
2022-07-25T06:47:41.941Z,100.00
2022-07-25T06:48:41.951Z,100.00
2022-07-25T06:49:41.986Z,100.00
2022-07-25T06:50:41.951Z,100.00
2022-07-25T06:51:41.966Z,100.00
2022-07-25T06:52:41.940Z,100.00
2022-07-25T06:53:41.974Z,100.00
2022-07-25T06:54:41.978Z,100.00
2022-07-25T06:55:41.977Z,100.00
2022-07-25T06:56:41.959Z,100.00
2022-07-25T06:57:41.948Z,100.00
2022-07-25T06:58:41.958Z,100.00
2022-07-25T06:59:41.990Z,100.00
2022-07-25T07:00:42.011Z,100.00
2022-07-25T07:01:41.967Z,100.00
2022-07-25T07:02:41.960Z,100.00
2022-07-25T07:03:42.023Z,100.00
2022-07-25T07:04:41.991Z,100.00
2022-07-25T07:05:41.969Z,100.00
2022-07-25T07:06:41.965Z,100.00
2022-07-25T07:07:47.161Z,100.00
2022-07-25T07:08:41.959Z,100.00
2022-07-25T07:09:41.982Z,98.43
2022-07-25T07:10:41.989Z,92.50
2022-07-25T07:11:41.979Z,85.29
2022-07-25T07:12:41.997Z,86.39
2022-07-25T07:13:41.987Z,78.52
2022-07-25T07:14:41.987Z,69.28
2022-07-25T07:15:41.992Z,67.62
2022-07-25T07:16:42.066Z,66.66
2022-07-25T07:17:41.994Z,70.10
2022-07-25T07:18:45.830Z,67.51
2022-07-25T07:19:41.989Z,68.82
2022-07-25T07:20:41.989Z,69.60
2022-07-25T07:21:41.979Z,69.75
2022-07-25T07:22:41.985Z,72.61
2022-07-25T07:23:41.992Z,73.28
2022-07-25T07:24:44.115Z,68.77
2022-07-25T07:25:41.984Z,67.86
2022-07-25T07:26:42.012Z,70.44
2022-07-25T07:27:41.989Z,73.66
2022-07-25T07:28:41.986Z,69.64
2022-07-25T07:29:42.000Z,66.38
2022-07-25T07:31:14.569Z,66.21
2022-07-25T07:31:42.064Z,63.01
2022-07-25T07:32:41.994Z,59.43
2022-07-25T07:33:42.023Z,54.60
2022-07-25T07:34:42.006Z,54.25
2022-07-25T07:35:41.997Z,54.30
2022-07-25T07:36:42.004Z,51.81
2022-07-25T07:37:43.763Z,48.60
2022-07-25T07:38:42.009Z,48.83
2022-07-25T07:39:42.026Z,48.13
2022-07-25T07:40:42.011Z,50.74
2022-07-25T07:41:42.026Z,49.53
2022-07-25T07:42:42.009Z,49.55
2022-07-25T07:43:42.035Z,51.16
2022-07-25T07:44:42.075Z,51.02
2022-07-25T07:45:42.063Z,51.65
2022-07-25T07:46:42.079Z,51.11
2022-07-25T07:47:42.014Z,50.41
2022-07-25T07:48:42.081Z,52.00
2022-07-25T07:49:43.375Z,51.80
2022-07-25T07:50:42.031Z,51.71
2022-07-25T07:51:42.029Z,52.08
2022-07-25T07:52:42.053Z,51.96
2022-07-25T07:53:42.027Z,53.03
2022-07-25T07:54:42.051Z,49.96
2022-07-25T07:55:42.030Z,50.97
2022-07-25T07:56:42.052Z,49.06
2022-07-25T07:57:42.035Z,49.32
2022-07-25T07:58:42.036Z,48.98
2022-07-25T07:59:42.051Z,48.72
2022-07-25T08:00:42.036Z,47.75
2022-07-25T08:01:42.160Z,49.21
2022-07-25T08:02:42.093Z,49.53
2022-07-25T08:03:42.040Z,48.52
2022-07-25T08:04:42.125Z,46.20
2022-07-25T08:05:42.062Z,46.40
2022-07-25T08:06:42.076Z,46.26
2022-07-25T08:07:42.043Z,47.50
2022-07-25T08:08:42.055Z,47.20
2022-07-25T08:09:42.062Z,48.23
2022-07-25T08:10:42.057Z,48.48
2022-07-25T08:11:42.063Z,47.04
2022-07-25T08:12:42.088Z,47.02
2022-07-25T08:13:42.051Z,45.00
2022-07-25T08:14:42.072Z,45.03
2022-07-25T08:15:42.154Z,45.06
2022-07-25T08:16:42.140Z,44.78
2022-07-25T08:17:42.056Z,46.74
2022-07-25T08:18:42.070Z,47.36
2022-07-25T08:19:42.110Z,46.13
2022-07-25T08:20:42.064Z,42.93
2022-07-25T08:21:42.067Z,43.02
2022-07-25T08:22:42.082Z,42.74
2022-07-25T08:23:42.071Z,43.23
2022-07-25T08:24:42.093Z,42.77
2022-07-25T08:25:42.067Z,43.50
2022-07-25T08:26:42.058Z,43.98
2022-07-25T08:27:42.104Z,42.33
2022-07-25T08:28:42.107Z,41.77
2022-07-25T08:29:42.101Z,42.30
2022-07-25T08:30:42.127Z,42.79
2022-07-25T08:31:42.107Z,43.44
2022-07-25T08:32:42.113Z,45.74
2022-07-25T08:33:42.093Z,45.36
2022-07-25T08:34:42.120Z,44.40
2022-07-25T08:35:42.159Z,41.57
2022-07-25T08:36:42.079Z,42.25
2022-07-25T08:37:42.085Z,43.63
2022-07-25T08:38:42.088Z,43.75
2022-07-25T08:39:42.101Z,44.25
2022-07-25T08:40:42.105Z,40.01
2022-07-25T08:41:42.110Z,39.27
2022-07-25T08:42:42.107Z,39.64
2022-07-25T08:43:42.154Z,39.05
2022-07-25T08:44:42.128Z,38.18
2022-07-25T08:45:42.115Z,38.33
2022-07-25T08:46:42.198Z,38.91
2022-07-25T08:47:42.107Z,39.35
2022-07-25T08:48:42.193Z,39.54
2022-07-25T08:49:42.317Z,39.05
2022-07-25T08:50:42.118Z,39.29
2022-07-25T08:51:42.148Z,38.17
2022-07-25T08:52:42.106Z,38.63
2022-07-25T08:53:42.108Z,39.38
2022-07-25T08:54:42.152Z,39.07
2022-07-25T08:55:42.139Z,39.14
2022-07-25T08:56:42.148Z,38.58
2022-07-25T08:57:42.143Z,39.51
2022-07-25T08:58:44.303Z,38.63
2022-07-25T08:59:42.160Z,38.15
2022-07-25T09:00:42.134Z,38.48
2022-07-25T09:01:42.203Z,38.70
2022-07-25T09:02:42.168Z,38.01
2022-07-25T09:03:42.138Z,38.21
2022-07-25T09:04:42.152Z,39.82
2022-07-25T09:05:42.158Z,39.80
2022-07-25T09:06:42.150Z,39.38
2022-07-25T09:07:42.137Z,39.58
2022-07-25T09:08:42.154Z,39.39
2022-07-25T09:09:42.174Z,40.39
2022-07-25T09:10:42.151Z,40.14
2022-07-25T09:11:42.163Z,39.46
2022-07-25T09:12:42.183Z,40.92
2022-07-25T09:13:42.188Z,39.51
2022-07-25T09:14:42.184Z,39.75
2022-07-25T09:15:42.229Z,38.29
2022-07-25T09:16:42.171Z,38.72
2022-07-25T09:17:42.157Z,37.60
2022-07-25T09:18:42.163Z,36.53
2022-07-25T09:19:42.173Z,36.60
2022-07-25T09:20:42.183Z,36.14
2022-07-25T09:21:42.165Z,36.38
2022-07-25T09:22:42.176Z,36.92
2022-07-25T09:23:42.173Z,37.33
2022-07-25T09:24:42.176Z,37.54
2022-07-25T09:25:42.169Z,38.45
2022-07-25T09:26:42.164Z,38.53
2022-07-25T09:27:42.183Z,39.29
2022-07-25T09:28:42.173Z,38.48
2022-07-25T09:29:42.200Z,38.88
2022-07-25T09:30:42.323Z,39.33
2022-07-25T09:31:42.292Z,39.43
2022-07-25T09:32:42.237Z,39.51
2022-07-25T09:33:42.233Z,39.48
2022-07-25T09:34:42.282Z,39.97
2022-07-25T09:35:42.261Z,39.58
2022-07-25T09:36:42.262Z,39.50
2022-07-25T09:37:42.286Z,38.92
2022-07-25T09:38:42.307Z,39.08
2022-07-25T09:39:46.683Z,38.13
2022-07-25T09:40:42.321Z,38.70
2022-07-25T09:41:42.316Z,37.73
2022-07-25T09:42:42.327Z,37.18
2022-07-25T09:43:42.324Z,37.29
2022-07-25T09:44:42.349Z,36.63
2022-07-25T09:45:42.341Z,36.20
2022-07-25T09:46:42.375Z,35.88
2022-07-25T09:47:42.341Z,36.34
2022-07-25T09:48:42.370Z,36.60
2022-07-25T09:49:42.346Z,35.62
2022-07-25T09:50:42.320Z,35.88
2022-07-25T09:51:42.325Z,36.62
2022-07-25T09:52:42.373Z,36.68
2022-07-25T09:53:42.344Z,36.46
2022-07-25T09:54:42.336Z,36.38
2022-07-25T09:55:42.341Z,36.92
2022-07-25T09:56:42.347Z,36.46
2022-07-25T09:57:42.351Z,36.80
2022-07-25T09:58:42.341Z,37.63
2022-07-25T09:59:42.354Z,36.72
2022-07-25T10:00:42.354Z,37.79
2022-07-25T10:01:42.477Z,37.00
2022-07-25T10:02:42.409Z,36.34
2022-07-25T10:03:42.361Z,36.04
2022-07-25T10:04:42.368Z,36.67
2022-07-25T10:05:42.335Z,36.30
2022-07-25T10:06:42.350Z,36.62
2022-07-25T10:07:42.370Z,35.76
2022-07-25T10:08:42.362Z,36.60
2022-07-25T10:09:42.396Z,36.54
2022-07-25T10:10:42.355Z,36.80
2022-07-25T10:11:42.353Z,37.39
2022-07-25T10:12:42.381Z,37.30
2022-07-25T10:13:42.371Z,37.86
2022-07-25T10:14:42.407Z,37.93
2022-07-25T10:15:42.350Z,37.86
2022-07-25T10:16:42.410Z,38.07
2022-07-25T10:17:42.371Z,37.53
2022-07-25T10:18:42.381Z,36.83
2022-07-25T10:19:45.978Z,36.58
2022-07-25T10:20:42.384Z,37.43
2022-07-25T10:21:42.374Z,37.17
2022-07-25T10:22:55.108Z,37.33
2022-07-25T10:23:42.405Z,37.01
2022-07-25T10:24:42.391Z,37.38
2022-07-25T10:25:47.100Z,37.03
2022-07-25T10:26:42.379Z,36.95
2022-07-25T10:27:42.414Z,36.54
2022-07-25T10:28:42.399Z,36.41
2022-07-25T10:29:42.448Z,36.09
2022-07-25T10:30:42.468Z,36.28
2022-07-25T10:31:47.696Z,36.57
2022-07-25T10:32:42.407Z,36.30
2022-07-25T10:33:42.422Z,36.67
2022-07-25T10:34:42.406Z,36.48
2022-07-25T10:35:42.410Z,36.27
2022-07-25T10:36:42.397Z,36.88
2022-07-25T10:37:45.908Z,37.58
2022-07-25T10:38:42.422Z,37.04
2022-07-25T10:39:42.424Z,36.37
2022-07-25T10:40:42.420Z,35.39
2022-07-25T10:41:42.417Z,35.49
2022-07-25T10:42:42.399Z,35.60
2022-07-25T10:43:45.692Z,35.46
2022-07-25T10:44:42.430Z,34.85
2022-07-25T10:45:42.537Z,34.85
2022-07-25T10:46:42.492Z,34.81
2022-07-25T10:47:42.410Z,35.41
2022-07-25T10:48:42.487Z,35.25
2022-07-25T10:50:00.289Z,35.29
2022-07-25T10:50:55.564Z,35.50
2022-07-25T10:51:42.435Z,35.54
2022-07-25T10:52:42.425Z,35.68
2022-07-25T10:53:42.435Z,36.03
2022-07-25T10:54:42.447Z,36.17
2022-07-25T10:55:42.430Z,36.00
2022-07-25T10:56:42.431Z,36.72
2022-07-25T10:58:07.944Z,37.30
2022-07-25T10:58:42.440Z,36.53
2022-07-25T10:59:42.460Z,36.85
2022-07-25T11:00:42.570Z,37.08
2022-07-25T11:01:42.488Z,37.67
2022-07-25T11:02:42.484Z,38.22
2022-07-25T11:03:42.439Z,38.39
2022-07-25T11:04:42.446Z,38.44
2022-07-25T11:05:42.437Z,38.68
2022-07-25T11:06:42.460Z,38.72
2022-07-25T11:07:46.706Z,38.54
2022-07-25T11:08:42.453Z,39.17
2022-07-25T11:09:42.465Z,38.83
2022-07-25T11:10:42.465Z,39.27
2022-07-25T11:11:42.494Z,39.50
2022-07-25T11:12:42.454Z,39.46
2022-07-25T11:13:42.473Z,39.58
2022-07-25T11:14:42.479Z,39.49
2022-07-25T11:15:42.458Z,39.40
2022-07-25T11:16:42.498Z,39.81
2022-07-25T11:17:42.465Z,40.11
2022-07-25T11:18:42.513Z,39.68
2022-07-25T11:19:42.499Z,40.14
2022-07-25T11:20:42.479Z,40.76
2022-07-25T11:21:42.488Z,41.80
2022-07-25T11:22:42.481Z,40.87
2022-07-25T11:23:42.471Z,40.08
2022-07-25T11:24:42.484Z,40.92
2022-07-25T11:25:42.474Z,40.95
2022-07-25T11:26:42.498Z,41.64
2022-07-25T11:27:42.478Z,41.71
2022-07-25T11:28:42.480Z,40.30
2022-07-25T11:29:42.504Z,40.80
2022-07-25T11:30:42.476Z,41.73
2022-07-25T11:31:42.517Z,41.58
2022-07-25T11:32:42.470Z,41.97
2022-07-25T11:33:42.489Z,42.46
2022-07-25T11:34:42.481Z,41.70
2022-07-25T11:35:42.494Z,41.60
2022-07-25T11:36:42.480Z,39.23
2022-07-25T11:37:42.502Z,38.93
2022-07-25T11:38:42.497Z,39.70
2022-07-25T11:39:42.517Z,39.55
2022-07-25T11:40:42.510Z,40.75
2022-07-25T11:41:42.515Z,40.11
2022-07-25T11:42:42.507Z,39.55
2022-07-25T11:43:42.534Z,39.15
2022-07-25T11:44:47.270Z,39.01
2022-07-25T11:45:42.588Z,39.22
2022-07-25T11:46:42.505Z,38.84
2022-07-25T11:47:42.546Z,38.97
2022-07-25T11:48:42.535Z,38.84
2022-07-25T11:49:42.548Z,39.07
2022-07-25T11:50:42.523Z,39.64
2022-07-25T11:51:42.516Z,41.52
2022-07-25T11:52:42.533Z,38.52
2022-07-25T11:53:42.526Z,40.07
2022-07-25T11:54:42.526Z,38.91
2022-07-25T11:55:42.605Z,38.44
2022-07-25T11:56:43.445Z,38.03
2022-07-25T11:57:42.514Z,38.65
2022-07-25T11:58:42.524Z,38.50
2022-07-25T11:59:42.562Z,38.06
2022-07-25T12:00:42.516Z,38.84
2022-07-25T12:01:42.530Z,38.42
2022-07-25T12:02:42.680Z,39.07
2022-07-25T12:03:42.585Z,39.08
2022-07-25T12:04:42.559Z,38.27
2022-07-25T12:05:42.541Z,38.39
2022-07-25T12:06:42.537Z,39.07
2022-07-25T12:07:42.537Z,38.56
2022-07-25T12:08:42.564Z,39.50
2022-07-25T12:09:42.578Z,39.15
2022-07-25T12:10:42.684Z,40.61
2022-07-25T12:11:42.525Z,40.82
2022-07-25T12:12:42.545Z,39.74
2022-07-25T12:13:42.504Z,39.97
2022-07-25T12:14:42.573Z,40.60
2022-07-25T12:15:42.555Z,40.11
2022-07-25T12:16:42.665Z,39.95
2022-07-25T12:17:42.565Z,40.02
2022-07-25T12:18:42.576Z,40.66
2022-07-25T12:19:42.567Z,40.15
2022-07-25T12:20:42.553Z,40.15
2022-07-25T12:21:42.566Z,40.91
2022-07-25T12:22:42.559Z,40.94
2022-07-25T12:23:42.568Z,41.14
2022-07-25T12:24:42.577Z,41.70
2022-07-25T12:25:42.568Z,42.87
2022-07-25T12:26:42.556Z,43.56
2022-07-25T12:27:42.538Z,43.45
2022-07-25T12:28:42.571Z,45.83
2022-07-25T12:29:42.617Z,44.46
2022-07-25T12:30:42.658Z,44.20
2022-07-25T12:31:42.599Z,44.90
2022-07-25T12:32:42.564Z,45.96
2022-07-25T12:33:42.571Z,47.69
2022-07-25T12:34:42.579Z,50.85
2022-07-25T12:35:42.576Z,56.27
2022-07-25T12:36:42.587Z,61.52
2022-07-25T12:37:42.575Z,78.38
2022-07-25T12:38:42.584Z,71.10